Observation data for Olton on 11/19/2019      Previous  Date  Next       Current Mesonet Observations  Soil Data  Daily Summary Page  Observations in Plain Language
KONS 190600Z 19008KT 06/M02 A3001 RMK A01 T00601017  RH  059%=      5-min Rain = 0
KONS 190605Z 19008KT 05/M02 A3001 RMK A01 T00521018  RH  061%=      5-min Rain = 0
KONS 190610Z 20007KT 05/M02 A3001 RMK A01 T00491018  RH  063%=      5-min Rain = 0
KONS 190615Z 20008KT 05/M02 A3001 RMK A01 T00531016  RH  062%=      5-min Rain = 0
KONS 190620Z 20006KT 05/M02 A3001 RMK A01 T00541017  RH  061%=      5-min Rain = 0
KONS 190625Z 20006KT 06/M02 A3001 RMK A01 T00571018  RH  059%=      5-min Rain = 0
KONS 190630Z 20006KT 06/M02 A3001 RMK A01 T00641019  RH  056%=      5-min Rain = 0
KONS 190635Z 22005KT 06/M02 A3001 RMK A01 T00581022  RH  057%=      5-min Rain = 0
KONS 190640Z 23004KT 05/M02 A3001 RMK A01 T00461023  RH  062%=      5-min Rain = 0
KONS 190645Z 24004KT 04/M02 A3001 RMK A01 T00371022  RH  066%=      5-min Rain = 0
KONS 190650Z 25005KT 03/M02 A3001 RMK A01 T00321020  RH  069%=      5-min Rain = 0
KONS 190655Z 26005KT 03/M02 A3001 RMK A01 T00301022  RH  070%=      5-min Rain = 0
KONS 190700Z 27005KT 02/M03 A3001 RMK A01 T00241027  RH  069%=      5-min Rain = 0
KONS 190705Z 28005KT 02/M04 A3001 RMK A01 T00191036  RH  067%=      5-min Rain = 0
KONS 190710Z 27004KT 02/M04 A3001 RMK A01 T00181038  RH  067%=      5-min Rain = 0
KONS 190715Z 27004KT 02/M04 A3001 RMK A01 T00211037  RH  066%=      5-min Rain = 0
KONS 190720Z 26006KT 02/M03 A3001 RMK A01 T00231034  RH  067%=      5-min Rain = 0
KONS 190725Z 26005KT 03/M03 A3001 RMK A01 T00261030  RH  067%=      5-min Rain = 0
KONS 190730Z 25005KT 03/M03 A3001 RMK A01 T00291027  RH  067%=      5-min Rain = 0
KONS 190735Z 25005KT 03/M02 A3001 RMK A01 T00311024  RH  068%=      5-min Rain = 0
KONS 190740Z 26005KT 04/M02 A3001 RMK A01 T00361024  RH  065%=      5-min Rain = 0
KONS 190745Z 26004KT 03/M02 A3001 RMK A01 T00311024  RH  068%=      5-min Rain = 0
KONS 190750Z 26005KT 03/M02 A3001 RMK A01 T00341022  RH  067%=      5-min Rain = 0
KONS 190755Z 26004KT 03/M03 A3001 RMK A01 T00331025  RH  066%=      5-min Rain = 0
KONS 190800Z 27004KT 03/M03 A3001 RMK A01 T00271030  RH  067%=      5-min Rain = 0
KONS 190805Z 27004KT 03/M03 A3001 RMK A01 T00251031  RH  067%=      5-min Rain = 0
KONS 190810Z 26005KT 03/M03 A3001 RMK A01 T00271030  RH  067%=      5-min Rain = 0
KONS 190815Z 26005KT 03/M03 A3001 RMK A01 T00291030  RH  066%=      5-min Rain = 0
KONS 190820Z 26005KT 03/M03 A3001 RMK A01 T00301028  RH  066%=      5-min Rain = 0
KONS 190825Z 25005KT 03/M02 A3001 RMK A01 T00341024  RH  066%=      5-min Rain = 0
KONS 190830Z 24005KT 04/M02 A3001 RMK A01 T00381022  RH  066%=      5-min Rain = 0
KONS 190835Z 25005KT 04/M03 A3001 RMK A01 T00361025  RH  065%=      5-min Rain = 0
KONS 190840Z 25004KT 03/M03 A3001 RMK A01 T00311026  RH  067%=      5-min Rain = 0
KONS 190845Z 26003KT 03/M02 A3001 RMK A01 T00321023  RH  068%=      5-min Rain = 0
KONS 190850Z 25003KT 03/M02 A3001 RMK A01 T00311024  RH  068%=      5-min Rain = 0
KONS 190855Z 22003KT 03/M02 A3001 RMK A01 T00331022  RH  068%=      5-min Rain = 0
KONS 190900Z 18005KT 04/M02 A3001 RMK A01 T00361023  RH  066%=      5-min Rain = 0
KONS 190905Z 18006KT 04/M02 A3001 RMK A01 T00401021  RH  065%=      5-min Rain = 0
KONS 190910Z 17007KT 05/M02 A3001 RMK A01 T00531020  RH  060%=      5-min Rain = 0
KONS 190915Z 16007KT 05/M02 A30 RMK A01 T00491023  RH  060%=      5-min Rain = 0
KONS 190920Z 17006KT 05/M02 A30 RMK A01 T00451024  RH  062%=      5-min Rain = 0
KONS 190925Z 18005KT 04/M03 A3001 RMK A01 T00411025  RH  063%=      5-min Rain = 0
KONS 190930Z 23007KT 05/M02 A3001 RMK A01 T00471018  RH  063%=      5-min Rain = 0
KONS 190935Z 24007G13KT 05/M02 A3001 RMK A01 T00451016  RH  065%=      5-min Rain = 0
KONS 190940Z 25008KT 04/M02 A3001 RMK A01 T00431019  RH  065%=      5-min Rain = 0
KONS 190945Z 26007KT 04/M02 A3001 RMK A01 T00421019  RH  065%=      5-min Rain = 0
KONS 190950Z 27006KT 04/M02 A3001 RMK A01 T00351021  RH  067%=      5-min Rain = 0
KONS 190955Z 28006KT 03/M02 A3001 RMK A01 T00251024  RH  071%=      5-min Rain = 0
KONS 191000Z 28005KT 01/M03 A3001 RMK A01 T00131030  RH  074%=      5-min Rain = 0
KONS 191005Z 29005KT 02/M03 A3001 RMK A01 T00161032  RH  071%=      5-min Rain = 0
KONS 191010Z 29005KT 01/M03 A3001 RMK A01 T00141034  RH  071%=      5-min Rain = 0
KONS 191015Z 29005KT 02/M03 A30 RMK A01 T00161031  RH  072%=      5-min Rain = 0
KONS 191020Z 31005KT 02/M03 A30 RMK A01 T00201032  RH  069%=      5-min Rain = 0
KONS 191025Z 33004KT 02/M03 A30 RMK A01 T00151034  RH  071%=      5-min Rain = 0
KONS 191030Z 31005KT 01/M04 A30 RMK A01 T00121035  RH  072%=      5-min Rain = 0
KONS 191035Z 30007KT 01/M03 A30 RMK A01 T00121034  RH  072%=      5-min Rain = 0
KONS 191040Z 30006KT 01/M03 A30 RMK A01 T00141033  RH  072%=      5-min Rain = 0
KONS 191045Z 29006KT 02/M03 A30 RMK A01 T00171031  RH  071%=      5-min Rain = 0
KONS 191050Z 27006KT 02/M03 A2999 RMK A01 T00201029  RH  071%=      5-min Rain = 0
KONS 191055Z 27006KT 01/M03 A2999 RMK A01 T00111031  RH  074%=      5-min Rain = 0
KONS 191100Z 27005KT 01/M03 A2999 RMK A01 T00121028  RH  076%=      5-min Rain = 0
KONS 191105Z 27005KT 02/M03 A2999 RMK A01 T00151028  RH  073%=      5-min Rain = 0
KONS 191110Z 28004KT 02/M03 A2999 RMK A01 T00171028  RH  073%=      5-min Rain = 0
KONS 191115Z 28005KT 02/M03 A2999 RMK A01 T00191030  RH  071%=      5-min Rain = 0
KONS 191120Z 28006KT 02/M03 A2999 RMK A01 T00211028  RH  071%=      5-min Rain = 0
KONS 191125Z 29007KT 02/M03 A2999 RMK A01 T00161031  RH  072%=      5-min Rain = 0
KONS 191130Z 30007KT 01/M03 A2999 RMK A01 T00121030  RH  075%=      5-min Rain = 0
KONS 191135Z 30008KT 01/M03 A2999 RMK A01 T00081031  RH  076%=      5-min Rain = 0
KONS 191140Z 30007KT 01/M03 A2999 RMK A01 T00101029  RH  076%=      5-min Rain = 0
KONS 191145Z 31008KT 01/M03 A2999 RMK A01 T00091030  RH  076%=      5-min Rain = 0
KONS 191150Z 31007KT 01/M03 A2999 RMK A01 T00081032  RH  075%=      5-min Rain = 0
KONS 191155Z 31007KT 01/M03 A2998 RMK A01 T00051034  RH  076%=      5-min Rain = 0
KONS 191200Z 32005KT 01/M03 A2998 RMK A01 T00051032  RH  077%=      5-min Rain = 0
KONS 191205Z 32005KT 01/M03 A2998 RMK A01 T00101030  RH  076%=      5-min Rain = 0
KONS 191210Z 33005KT 02/M03 A2998 RMK A01 T00151028  RH  074%=      5-min Rain = 0
KONS 191215Z 32004KT 02/M03 A2998 RMK A01 T00161029  RH  073%=      5-min Rain = 0
KONS 191220Z 32004KT 02/M03 A2998 RMK A01 T00191027  RH  072%=      5-min Rain = 0
KONS 191225Z 32003KT 02/M03 A2998 RMK A01 T00191028  RH  072%=      5-min Rain = 0
KONS 191230Z 34002KT 02/M03 A2998 RMK A01 T00191028  RH  072%=      5-min Rain = 0
KONS 191235Z 36002KT 02/M03 A2998 RMK A01 T00191028  RH  072%=      5-min Rain = 0
KONS 191240Z 02003KT 02/M03 A2998 RMK A01 T00191027  RH  072%=      5-min Rain = 0
KONS 191245Z 02003KT 02/M03 A2998 RMK A01 T00201028  RH  071%=      5-min Rain = 0
KONS 191250Z 01003KT 02/M03 A2998 RMK A01 T00191028  RH  072%=      5-min Rain = 0
KONS 191255Z 36002KT 02/M03 A2998 RMK A01 T00191027  RH  072%=      5-min Rain = 0
KONS 191300Z 34000KT 02/M03 A2998 RMK A01 T00241025  RH  071%=      5-min Rain = 0
KONS 191305Z 00000KT 03/M03 A2998 RMK A01 T00271026  RH  069%=      5-min Rain = 0
KONS 191310Z 26000KT 03/M03 A2998 RMK A01 T00271025  RH  069%=      5-min Rain = 0
KONS 191315Z 23001KT 03/M02 A2998 RMK A01 T00301024  RH  068%=      5-min Rain = 0
KONS 191320Z 21002KT 04/M02 A2998 RMK A01 T00351021  RH  067%=      5-min Rain = 0
KONS 191325Z 20002KT 03/M02 A2998 RMK A01 T00341022  RH  068%=      5-min Rain = 0
KONS 191330Z 20003KT 04/M02 A2998 RMK A01 T00351022  RH  067%=      5-min Rain = 0
KONS 191335Z 20003KT 03/M03 A2998 RMK A01 T00251028  RH  069%=      5-min Rain = 0
KONS 191340Z 20003KT 02/M03 A2998 RMK A01 T00181027  RH  073%=      5-min Rain = 0
KONS 191345Z 20003KT 02/M02 A2998 RMK A01 T00171024  RH  075%=      5-min Rain = 0
KONS 191350Z 20002KT 02/M03 A2998 RMK A01 T00181025  RH  074%=      5-min Rain = 0
KONS 191355Z 19002KT 02/M02 A2998 RMK A01 T00181024  RH  075%=      5-min Rain = 0
KONS 191400Z 17002KT 03/M02 A2998 RMK A01 T00291016  RH  073%=      5-min Rain = 0
KONS 191405Z 17002KT 04/M01 A2998 RMK A01 T00391009  RH  072%=      5-min Rain = 0
KONS 191410Z 27003KT 04/M01 A2998 RMK A01 T00391008  RH  072%=      5-min Rain = 0
KONS 191415Z 29005KT 04/M01 A2998 RMK A01 T00361014  RH  070%=      5-min Rain = 0
KONS 191420Z 28005KT 04/M01 A2998 RMK A01 T00411009  RH  071%=      5-min Rain = 0
KONS 191425Z 27003KT 05/M01 A2998 RMK A01 T00531005  RH  067%=      5-min Rain = 0
KONS 191430Z 23003KT 07/M00 A2998 RMK A01 T00681002  RH  062%=      5-min Rain = 0
KONS 191435Z 25003KT 09/M00 A2998 RMK A01 T00851001  RH  056%=      5-min Rain = 0
KONS 191440Z 24003KT 09/M00 A2998 RMK A01 T00901004  RH  053%=      5-min Rain = 0
KONS 191445Z 25003KT 09/M00 A2998 RMK A01 T00921003  RH  052%=      5-min Rain = 0
KONS 191450Z 22003KT 09/M00 A2998 RMK A01 T00931003  RH  052%=      5-min Rain = 0
KONS 191455Z 20004KT 10/00 A2998 RMK A01 T00970003  RH  053%=      5-min Rain = 0
KONS 191500Z 19004KT 10/01 A2998 RMK A01 T01010010  RH  054%=      5-min Rain = 0
KONS 191505Z 20004KT 11/02 A2998 RMK A01 T01070016  RH  054%=      5-min Rain = 0
KONS 191510Z 21005KT 11/02 A2998 RMK A01 T01120020  RH  054%=      5-min Rain = 0
KONS 191515Z 22006KT 12/02 A2998 RMK A01 T01180015  RH  050%=      5-min Rain = 0
KONS 191520Z 23006KT 12/01 A2998 RMK A01 T01240012  RH  047%=      5-min Rain = 0
KONS 191525Z 24007KT 13/02 A2999 RMK A01 T01280019  RH  048%=      5-min Rain = 0
KONS 191530Z 23007KT 13/02 A2999 RMK A01 T01270018  RH  048%=      5-min Rain = 0
KONS 191535Z 22007KT 13/02 A2999 RMK A01 T01340016  RH  045%=      5-min Rain = 0
KONS 191540Z 20006KT 14/02 A2999 RMK A01 T01410015  RH  043%=      5-min Rain = 0
KONS 191545Z 20007KT 15/02 A2999 RMK A01 T01450015  RH  042%=      5-min Rain = 0
KONS 191550Z 20007KT 15/01 A2999 RMK A01 T01480014  RH  041%=      5-min Rain = 0
KONS 191555Z 20007KT 16/02 A2998 RMK A01 T01570015  RH  039%=      5-min Rain = 0
KONS 191600Z 20008KT 16/01 A2998 RMK A01 T01630012  RH  037%=      5-min Rain = 0
KONS 191605Z 20007KT 17/01 A2998 RMK A01 T01670009  RH  035%=      5-min Rain = 0
KONS 191610Z 18008KT 17/01 A2998 RMK A01 T01700009  RH  034%=      5-min Rain = 0
KONS 191615Z 19008KT 17/01 A2998 RMK A01 T01740011  RH  034%=      5-min Rain = 0
KONS 191620Z 19008KT 18/01 A2998 RMK A01 T01780013  RH  033%=      5-min Rain = 0
KONS 191625Z 18009KT 19/01 A2998 RMK A01 T01850009  RH  031%=      5-min Rain = 0
KONS 191630Z 18012KT 19/M00 A2997 RMK A01 T01881003  RH  028%=      5-min Rain = 0
KONS 191635Z 18010KT 19/00 A2997 RMK A01 T019100-0  RH  028%=      5-min Rain = 0
KONS 191640Z 18011KT 20/M00 A2997 RMK A01 T01951001  RH  027%=      5-min Rain = 0
KONS 191645Z 18011KT 20/00 A2997 RMK A01 T019700-0  RH  027%=      5-min Rain = 0
KONS 191650Z 19011KT 20/00 A2997 RMK A01 T02000002  RH  027%=      5-min Rain = 0
KONS 191655Z 19012KT 20/00 A2996 RMK A01 T02040001  RH  026%=      5-min Rain = 0
KONS 191700Z 19014G19KT 20/M01 A2996 RMK A01 T02031005  RH  025%=      5-min Rain = 0
KONS 191705Z 18014KT 20/M01 A2996 RMK A01 T02021005  RH  025%=      5-min Rain = 0
KONS 191710Z 19013KT 20/M00 A2996 RMK A01 T02041004  RH  025%=      5-min Rain = 0
KONS 191715Z 18012KT 21/M00 A2995 RMK A01 T02071002  RH  025%=      5-min Rain = 0
KONS 191720Z 18012KT 21/M01 A2995 RMK A01 T02081007  RH  024%=      5-min Rain = 0
KONS 191725Z 18012KT 21/M00 A2995 RMK A01 T02111001  RH  025%=      5-min Rain = 0
KONS 191730Z 18012KT 21/M00 A2995 RMK A01 T02141002  RH  024%=      5-min Rain = 0
KONS 191735Z 18014KT 21/M01 A2994 RMK A01 T02141005  RH  023%=      5-min Rain = 0
KONS 191740Z 18014KT 22/M00 A2994 RMK A01 T02161001  RH  024%=      5-min Rain = 0
KONS 191745Z 18014KT 22/00 A2994 RMK A01 T021800-0  RH  024%=      5-min Rain = 0
KONS 191750Z 19015KT 22/M00 A2994 RMK A01 T02171002  RH  024%=      5-min Rain = 0
KONS 191755Z 18015KT 22/00 A2994 RMK A01 T021800-0  RH  024%=      5-min Rain = 0
KONS 191800Z 18013KT 22/00 A2994 RMK A01 T02210001  RH  023%=      5-min Rain = 0
KONS 191805Z 18015KT 22/00 A2993 RMK A01 T02230001  RH  023%=      5-min Rain = 0
KONS 191810Z 19014G19KT 22/00 A2993 RMK A01 T02220002  RH  024%=      5-min Rain = 0
KONS 191815Z 19013KT 22/00 A2993 RMK A01 T02240004  RH  023%=      5-min Rain = 0
KONS 191820Z 19016KT 22/00 A2992 RMK A01 T02240000  RH  023%=      5-min Rain = 0
KONS 191825Z 19015KT 22/00 A2992 RMK A01 T02240001  RH  023%=      5-min Rain = 0
KONS 191830Z 19013G19KT 23/00 A2992 RMK A01 T02280001  RH  022%=      5-min Rain = 0
KONS 191835Z 18015KT 23/00 A2992 RMK A01 T023200-0  RH  022%=      5-min Rain = 0
KONS 191840Z 19016G22KT 23/M01 A2991 RMK A01 T02331005  RH  021%=      5-min Rain = 0
KONS 191845Z 19014G20KT 24/M00 A2991 RMK A01 T02351004  RH  021%=      5-min Rain = 0
KONS 191850Z 19015G20KT 24/M01 A2991 RMK A01 T02381005  RH  020%=      5-min Rain = 0
KONS 191855Z 20016G22KT 24/M01 A299 RMK A01 T02391005  RH  020%=      5-min Rain = 0
KONS 191900Z 20019KT 24/M01 A299 RMK A01 T02371011  RH  020%=      5-min Rain = 0
KONS 191905Z 19017G22KT 24/M01 A299 RMK A01 T02371007  RH  020%=      5-min Rain = 0
KONS 191910Z 19018G25KT 24/M00 A2989 RMK A01 T02401003  RH  020%=      5-min Rain = 0
KONS 191915Z 19017G24KT 24/M01 A2989 RMK A01 T02391005  RH  020%=      5-min Rain = 0
KONS 191920Z 19018G25KT 24/M00 A2989 RMK A01 T02401004  RH  020%=      5-min Rain = 0
KONS 191925Z 19020G25KT 24/M01 A2989 RMK A01 T02371010  RH  020%=      5-min Rain = 0
KONS 191930Z 20019KT 23/M01 A2989 RMK A01 T02331010  RH  020%=      5-min Rain = 0
KONS 191935Z 20018G24KT 23/M01 A2988 RMK A01 T02271008  RH  021%=      5-min Rain = 0
KONS 191940Z 19015KT 23/00 A2988 RMK A01 T02300000  RH  022%=      5-min Rain = 0
KONS 191945Z 19016G23KT 24/M00 A2987 RMK A01 T02371001  RH  021%=      5-min Rain = 0
KONS 191950Z 19019KT 24/M01 A2987 RMK A01 T02391006  RH  020%=      5-min Rain = 0
KONS 191955Z 20019G24KT 24/M01 A2986 RMK A01 T02391011  RH  019%=      5-min Rain = 0
KONS 192000Z 19019G24KT 24/M01 A2986 RMK A01 T02391008  RH  020%=      5-min Rain = 0
KONS 192005Z 20018G24KT 24/M01 A2986 RMK A01 T02401005  RH  020%=      5-min Rain = 0
KONS 192010Z 21016KT 24/M01 A2986 RMK A01 T02411006  RH  020%=      5-min Rain = 0
KONS 192015Z 20016KT 24/M01 A2985 RMK A01 T02431006  RH  019%=      5-min Rain = 0
KONS 192020Z 19018G24KT 25/M01 A2985 RMK A01 T02451007  RH  019%=      5-min Rain = 0
KONS 192025Z 20017G24KT 24/M01 A2985 RMK A01 T02441010  RH  019%=      5-min Rain = 0
KONS 192030Z 19017G24KT 24/M01 A2985 RMK A01 T02441010  RH  019%=      5-min Rain = 0
KONS 192035Z 20018G25KT 25/M01 A2985 RMK A01 T02451009  RH  019%=      5-min Rain = 0
KONS 192040Z 20018G23KT 25/M01 A2984 RMK A01 T02451011  RH  019%=      5-min Rain = 0
KONS 192045Z 20019G25KT 25/M01 A2984 RMK A01 T02451010  RH  019%=      5-min Rain = 0
KONS 192050Z 19018G23KT 25/M01 A2984 RMK A01 T02451010  RH  019%=      5-min Rain = 0
KONS 192055Z 20017G23KT 25/M01 A2984 RMK A01 T02451011  RH  019%=      5-min Rain = 0
KONS 192100Z 20016KT 25/M01 A2984 RMK A01 T02451008  RH  019%=      5-min Rain = 0
KONS 192105Z 19016KT 24/M01 A2984 RMK A01 T02431007  RH  019%=      5-min Rain = 0
KONS 192110Z 19016G21KT 24/M01 A2984 RMK A01 T02431007  RH  019%=      5-min Rain = 0
KONS 192115Z 20016KT 24/M01 A2983 RMK A01 T02431008  RH  019%=      5-min Rain = 0
KONS 192120Z 21016KT 24/M01 A2983 RMK A01 T02431011  RH  019%=      5-min Rain = 0
KONS 192125Z 20016G21KT 24/M01 A2983 RMK A01 T02431005  RH  020%=      5-min Rain = 0
KONS 192130Z 19014G20KT 24/00 A2983 RMK A01 T02440001  RH  020%=      5-min Rain = 0
KONS 192135Z 20015G20KT 25/M00 A2983 RMK A01 T02451003  RH  020%=      5-min Rain = 0
KONS 192140Z 19017KT 25/M01 A2983 RMK A01 T02451008  RH  019%=      5-min Rain = 0
KONS 192145Z 19017G22KT 24/M01 A2983 RMK A01 T02431006  RH  020%=      5-min Rain = 0
KONS 192150Z 19016G21KT 24/M01 A2983 RMK A01 T02431005  RH  020%=      5-min Rain = 0
KONS 192155Z 18014KT 24/M01 A2983 RMK A01 T02431006  RH  019%=      5-min Rain = 0
KONS 192200Z 19014G19KT 24/M00 A2983 RMK A01 T02411003  RH  020%=      5-min Rain = 0
KONS 192205Z 19015G20KT 24/00 A2983 RMK A01 T02390000  RH  021%=      5-min Rain = 0
KONS 192210Z 19015KT 24/M00 A2983 RMK A01 T02351002  RH  021%=      5-min Rain = 0
KONS 192215Z 19014KT 23/M00 A2983 RMK A01 T02321004  RH  021%=      5-min Rain = 0
KONS 192220Z 19014G19KT 23/M01 A2983 RMK A01 T02331007  RH  021%=      5-min Rain = 0
KONS 192225Z 19011KT 23/00 A2983 RMK A01 T023300-0  RH  022%=      5-min Rain = 0
KONS 192230Z 18010KT 23/00 A2982 RMK A01 T02310004  RH  022%=      5-min Rain = 0
KONS 192235Z 18011KT 23/M00 A2982 RMK A01 T02301002  RH  022%=      5-min Rain = 0
KONS 192240Z 17010KT 23/M00 A2982 RMK A01 T02301001  RH  022%=      5-min Rain = 0
KONS 192245Z 18010KT 23/M00 A2982 RMK A01 T02301001  RH  022%=      5-min Rain = 0
KONS 192250Z 19012KT 22/M00 A2982 RMK A01 T02221001  RH  023%=      5-min Rain = 0
KONS 192255Z 18012KT 22/M00 A2982 RMK A01 T02161004  RH  023%=      5-min Rain = 0
KONS 192300Z 18013KT 21/M01 A2982 RMK A01 T02121008  RH  023%=      5-min Rain = 0
KONS 192305Z 18012KT 21/M01 A2982 RMK A01 T02071011  RH  023%=      5-min Rain = 0
KONS 192310Z 18011KT 20/M01 A2982 RMK A01 T01991009  RH  025%=      5-min Rain = 0
KONS 192315Z 17011KT 20/M02 A2982 RMK A01 T01981016  RH  024%=      5-min Rain = 0
KONS 192320Z 17010KT 20/M02 A2982 RMK A01 T02001020  RH  023%=      5-min Rain = 0
KONS 192325Z 17009KT 20/M02 A2982 RMK A01 T01971022  RH  023%=      5-min Rain = 0
KONS 192330Z 17009KT 19/M02 A2982 RMK A01 T01901019  RH  024%=      5-min Rain = 0
KONS 192335Z 17009KT 18/M02 A2982 RMK A01 T01831017  RH  026%=      5-min Rain = 0
KONS 192340Z 17008KT 18/M02 A2982 RMK A01 T01781020  RH  026%=      5-min Rain = 0
KONS 192345Z 17009KT 17/M02 A2982 RMK A01 T01731022  RH  027%=      5-min Rain = 0
KONS 192350Z 17009KT 17/M02 A2982 RMK A01 T01661020  RH  028%=      5-min Rain = 0
KONS 192355Z 16010KT 16/M01 A2982 RMK A01 T01551011  RH  032%=      5-min Rain = 0
KONS 200000Z 16010KT 15/M01 A2983 RMK A01 T01501011  RH  033%=      5-min Rain = 0
KONS 200005Z 17011KT 16/M01 A2983 RMK A01 T01561014  RH  032%=      5-min Rain = 0
KONS 200010Z 17010KT 16/M02 A2983 RMK A01 T01641016  RH  030%=      5-min Rain = 0
KONS 200015Z 17010KT 16/M01 A2983 RMK A01 T01601013  RH  031%=      5-min Rain = 0
KONS 200020Z 17010KT 16/M01 A2983 RMK A01 T01581012  RH  031%=      5-min Rain = 0
KONS 200025Z 17010KT 16/M01 A2983 RMK A01 T01581012  RH  032%=      5-min Rain = 0
KONS 200030Z 17011KT 16/M02 A2983 RMK A01 T01611015  RH  030%=      5-min Rain = 0
KONS 200035Z 17010KT 16/M02 A2983 RMK A01 T01631015  RH  030%=      5-min Rain = 0
KONS 200040Z 17011KT 16/M02 A2983 RMK A01 T01631015  RH  030%=      5-min Rain = 0
KONS 200045Z 17012KT 16/M02 A2983 RMK A01 T01631018  RH  029%=      5-min Rain = 0
KONS 200050Z 17012KT 16/M02 A2983 RMK A01 T01621017  RH  030%=      5-min Rain = 0
KONS 200055Z 17011KT 16/M02 A2983 RMK A01 T01591018  RH  030%=      5-min Rain = 0
KONS 200100Z 17011KT 15/M02 A2983 RMK A01 T01541018  RH  031%=      5-min Rain = 0
KONS 200105Z 17011KT 15/M02 A2983 RMK A01 T01491018  RH  032%=      5-min Rain = 0
KONS 200110Z 17011KT 15/M02 A2983 RMK A01 T01491018  RH  032%=      5-min Rain = 0
KONS 200115Z 17011KT 15/M02 A2983 RMK A01 T01481019  RH  032%=      5-min Rain = 0
KONS 200120Z 17011KT 15/M02 A2983 RMK A01 T01481019  RH  032%=      5-min Rain = 0
KONS 200125Z 17011KT 14/M02 A2983 RMK A01 T01441019  RH  033%=      5-min Rain = 0
KONS 200130Z 17012KT 14/M02 A2983 RMK A01 T01421019  RH  033%=      5-min Rain = 0
KONS 200135Z 17013KT 14/M02 A2983 RMK A01 T01391016  RH  035%=      5-min Rain = 0
KONS 200140Z 18012KT 13/M01 A2983 RMK A01 T01311012  RH  038%=      5-min Rain = 0
KONS 200145Z 18012KT 13/M01 A2984 RMK A01 T01261012  RH  039%=      5-min Rain = 0
KONS 200150Z 18013KT 13/M01 A2984 RMK A01 T01251013  RH  039%=      5-min Rain = 0
KONS 200155Z 17012KT 13/M01 A2984 RMK A01 T01261013  RH  038%=      5-min Rain = 0
KONS 200200Z 17011KT 13/M02 A2984 RMK A01 T01291017  RH  037%=      5-min Rain = 0
KONS 200205Z 17011KT 13/M02 A2984 RMK A01 T01271016  RH  037%=      5-min Rain = 0
KONS 200210Z 17011KT 13/M02 A2984 RMK A01 T01261016  RH  038%=      5-min Rain = 0
KONS 200215Z 17011KT 13/M02 A2984 RMK A01 T01271016  RH  038%=      5-min Rain = 0
KONS 200220Z 17011KT 12/M02 A2984 RMK A01 T01221015  RH  039%=      5-min Rain = 0
KONS 200225Z 17011KT 12/M02 A2984 RMK A01 T01181016  RH  040%=      5-min Rain = 0
KONS 200230Z 17011KT 12/M02 A2984 RMK A01 T01191017  RH  039%=      5-min Rain = 0
KONS 200235Z 17010KT 12/M02 A2984 RMK A01 T01191016  RH  040%=      5-min Rain = 0
KONS 200240Z 18011KT 11/M01 A2984 RMK A01 T01111013  RH  043%=      5-min Rain = 0
KONS 200245Z 18010KT 11/M01 A2984 RMK A01 T01071011  RH  044%=      5-min Rain = 0
KONS 200250Z 18011KT 10/M01 A2984 RMK A01 T01011009  RH  047%=      5-min Rain = 0
KONS 200255Z 18011KT 10/M01 A2984 RMK A01 T00991009  RH  048%=      5-min Rain = 0
KONS 200300Z 18011KT 10/M01 A2984 RMK A01 T01001011  RH  047%=      5-min Rain = 0
KONS 200305Z 18011KT 10/M01 A2984 RMK A01 T01021012  RH  046%=      5-min Rain = 0
KONS 200310Z 18011KT 10/M01 A2984 RMK A01 T01041010  RH  046%=      5-min Rain = 0
KONS 200315Z 18011KT 11/M01 A2984 RMK A01 T01051009  RH  046%=      5-min Rain = 0
KONS 200320Z 18012KT 11/M01 A2984 RMK A01 T01051009  RH  045%=      5-min Rain = 0
KONS 200325Z 18012KT 11/M01 A2984 RMK A01 T01061009  RH  046%=      5-min Rain = 0
KONS 200330Z 18012KT 11/M01 A2984 RMK A01 T01081009  RH  045%=      5-min Rain = 0
KONS 200335Z 18011KT 11/M01 A2984 RMK A01 T01111008  RH  044%=      5-min Rain = 0
KONS 200340Z 18012KT 11/M01 A2984 RMK A01 T01111008  RH  044%=      5-min Rain = 0
KONS 200345Z 18011KT 11/M01 A2984 RMK A01 T01081006  RH  045%=      5-min Rain = 0
KONS 200350Z 18011KT 11/M01 A2984 RMK A01 T01081006  RH  046%=      5-min Rain = 0
KONS 200355Z 19011KT 11/M01 A2984 RMK A01 T01081006  RH  046%=      5-min Rain = 0
KONS 200400Z 19011KT 11/M01 A2984 RMK A01 T01081007  RH  046%=      5-min Rain = 0
KONS 200405Z 19012KT 11/M01 A2984 RMK A01 T01071005  RH  046%=      5-min Rain = 0
KONS 200410Z 19011KT 11/M01 A2984 RMK A01 T01101005  RH  046%=      5-min Rain = 0
KONS 200415Z 19011KT 11/M00 A2984 RMK A01 T01071004  RH  047%=      5-min Rain = 0
KONS 200420Z 19010KT 10/M00 A2983 RMK A01 T01041004  RH  047%=      5-min Rain = 0
KONS 200425Z 19010KT 10/M01 A2983 RMK A01 T01031005  RH  048%=      5-min Rain = 0
KONS 200430Z 19011KT 10/M01 A2984 RMK A01 T01021005  RH  048%=      5-min Rain = 0
KONS 200435Z 19011KT 10/M01 A2984 RMK A01 T01041005  RH  047%=      5-min Rain = 0
KONS 200440Z 18011KT 11/M01 A2984 RMK A01 T01091005  RH  046%=      5-min Rain = 0
KONS 200445Z 18011KT 11/M01 A2984 RMK A01 T01131005  RH  045%=      5-min Rain = 0
KONS 200450Z 18012KT 12/M01 A2984 RMK A01 T01171006  RH  043%=      5-min Rain = 0
KONS 200455Z 18011KT 12/M01 A2984 RMK A01 T01181005  RH  043%=      5-min Rain = 0
KONS 200500Z 19012KT 12/M00 A2984 RMK A01 T01211004  RH  043%=      5-min Rain = 0
KONS 200505Z 19011KT 12/M00 A2984 RMK A01 T01221003  RH  043%=      5-min Rain = 0
KONS 200510Z 18011KT 12/M00 A2984 RMK A01 T01221003  RH  043%=      5-min Rain = 0
KONS 200515Z 18011KT 12/M00 A2984 RMK A01 T01211002  RH  043%=      5-min Rain = 0
KONS 200520Z 18011KT 12/M00 A2984 RMK A01 T01201002  RH  043%=      5-min Rain = 0
KONS 200525Z 18012KT 12/M00 A2984 RMK A01 T01201001  RH  044%=      5-min Rain = 0
KONS 200530Z 18012KT 12/M00 A2984 RMK A01 T01181001  RH  044%=      5-min Rain = 0
KONS 200535Z 18012KT 12/00 A2984 RMK A01 T011800-0  RH  045%=      5-min Rain = 0
KONS 200540Z 18012KT 12/00 A2984 RMK A01 T01170001  RH  045%=      5-min Rain = 0
KONS 200545Z 18013KT 12/00 A2984 RMK A01 T01170003  RH  046%=      5-min Rain = 0
KONS 200550Z 18012KT 12/01 A2984 RMK A01 T01180007  RH  047%=      5-min Rain = 0
KONS 200555Z 18012KT 12/01 A2983 RMK A01 T01200010  RH  048%=      5-min Rain = 0

Page generated in 0.0128 seconds.